createdAt,value
2022-10-21T00:02:14.807Z,91.20
2022-10-21T00:05:57.030Z,91.20
2022-10-21T00:09:38.867Z,91.30
2022-10-21T00:13:21.870Z,91.40
2022-10-21T00:17:03.707Z,91.50
2022-10-21T00:20:45.483Z,91.40
2022-10-21T00:24:27.293Z,91.50
2022-10-21T00:28:09.101Z,91.80
2022-10-21T00:31:54.277Z,91.90
2022-10-21T00:35:36.120Z,91.90
2022-10-21T00:39:18.005Z,91.90
2022-10-21T00:43:00.268Z,92.10
2022-10-21T00:46:47.576Z,92.40
2022-10-21T00:50:37.510Z,92.50
2022-10-21T00:54:24.871Z,92.50
2022-10-21T00:58:08.107Z,92.60
2022-10-21T01:01:50.087Z,92.70
2022-10-21T01:05:32.432Z,92.70
2022-10-21T01:09:15.155Z,92.70
2022-10-21T01:13:03.753Z,92.80
2022-10-21T01:16:57.630Z,92.90
2022-10-21T01:21:08.505Z,93.20
2022-10-21T01:25:08.069Z,93.10
2022-10-21T01:28:49.871Z,93.40
2022-10-21T01:32:50.215Z,93.70
2022-10-21T01:36:38.103Z,93.30
2022-10-21T01:40:31.463Z,94.00
2022-10-21T01:44:18.550Z,93.90
2022-10-21T01:48:08.301Z,93.90
2022-10-21T01:51:52.098Z,93.80
2022-10-21T01:55:35.537Z,93.90
2022-10-21T01:59:19.866Z,94.10
2022-10-21T02:03:05.986Z,94.50
2022-10-21T02:06:47.816Z,94.50
2022-10-21T02:10:34.811Z,95.10
2022-10-21T02:14:36.742Z,95.40
2022-10-21T02:18:24.438Z,93.50
2022-10-21T02:22:09.758Z,95.30
2022-10-21T02:25:51.828Z,95.70
2022-10-21T02:29:37.624Z,95.90
2022-10-21T02:33:30.886Z,95.90
2022-10-21T02:37:30.211Z,96.00
2022-10-21T02:41:16.387Z,96.10
2022-10-21T02:45:03.031Z,96.20
2022-10-21T02:48:46.585Z,96.20
2022-10-21T02:52:28.399Z,96.20
2022-10-21T02:56:10.431Z,96.50
2022-10-21T02:59:52.278Z,96.50
2022-10-21T03:03:34.103Z,96.80
2022-10-21T03:07:15.965Z,96.60
2022-10-21T03:10:57.792Z,97.00
2022-10-21T03:14:39.715Z,97.10
2022-10-21T03:18:21.537Z,97.50
2022-10-21T03:22:03.466Z,97.30
2022-10-21T03:25:45.291Z,97.60
2022-10-21T03:29:27.174Z,97.60
2022-10-21T03:33:09.036Z,97.80
2022-10-21T03:36:50.854Z,97.60
2022-10-21T03:40:32.710Z,97.60
2022-10-21T03:44:14.568Z,97.90
2022-10-21T03:47:56.566Z,98.00
2022-10-21T03:51:38.402Z,97.90
2022-10-21T03:55:21.093Z,98.20
2022-10-21T03:59:03.187Z,98.20
2022-10-21T04:02:45.179Z,98.10
2022-10-21T04:06:27.028Z,98.20
2022-10-21T04:10:10.404Z,98.30
2022-10-21T04:13:52.354Z,98.20
2022-10-21T04:17:34.197Z,98.20
2022-10-21T04:21:16.220Z,98.30
2022-10-21T04:24:59.765Z,98.20
2022-10-21T04:28:44.131Z,98.20
2022-10-21T04:32:25.950Z,98.00
2022-10-21T04:36:07.944Z,98.30
2022-10-21T04:39:49.771Z,98.30
2022-10-21T04:43:31.803Z,98.10
2022-10-21T04:47:13.644Z,98.20
2022-10-21T04:50:55.967Z,98.40
2022-10-21T04:54:37.774Z,98.30
2022-10-21T04:58:22.042Z,98.20
2022-10-21T05:02:04.215Z,98.30
2022-10-21T05:05:50.307Z,98.30
2022-10-21T05:09:32.152Z,98.20
2022-10-21T05:13:14.674Z,97.80
2022-10-21T05:16:56.523Z,98.00
2022-10-21T05:20:38.337Z,98.30
2022-10-21T05:24:20.233Z,98.30
2022-10-21T05:28:02.081Z,98.20
2022-10-21T05:31:44.088Z,97.90
2022-10-21T05:35:25.991Z,98.00
2022-10-21T05:39:11.359Z,97.90
2022-10-21T05:42:53.182Z,97.80
2022-10-21T05:46:35.068Z,97.70
2022-10-21T05:50:16.976Z,97.60
2022-10-21T05:53:59.140Z,97.50
2022-10-21T05:57:41.064Z,97.40
2022-10-21T06:01:23.211Z,97.50
2022-10-21T06:05:05.361Z,97.40
2022-10-21T06:08:47.189Z,97.40
2022-10-21T06:12:29.056Z,97.30
2022-10-21T06:16:12.325Z,97.10
2022-10-21T06:19:54.159Z,96.90
2022-10-21T06:23:36.304Z,96.80
2022-10-21T06:27:18.141Z,96.60
2022-10-21T06:31:00.190Z,96.40
2022-10-21T06:34:42.015Z,96.30
2022-10-21T06:38:26.066Z,96.20
2022-10-21T06:42:07.883Z,96.20
2022-10-21T06:45:49.671Z,96.10
2022-10-21T06:49:31.610Z,96.10
2022-10-21T06:53:13.482Z,96.00
2022-10-21T06:56:55.299Z,95.90
2022-10-21T07:00:37.702Z,95.90
2022-10-21T07:04:19.511Z,95.80
2022-10-21T07:08:01.282Z,95.80
2022-10-21T07:11:43.803Z,95.80
2022-10-21T07:15:25.847Z,95.90
2022-10-21T07:19:09.901Z,95.80
2022-10-21T07:22:51.723Z,95.90
2022-10-21T07:26:34.963Z,96.20
2022-10-21T07:30:16.792Z,96.40
2022-10-21T07:37:50.072Z,97.10
2022-10-21T07:41:35.849Z,97.80
2022-10-21T07:45:17.683Z,98.10
2022-10-21T07:48:59.578Z,98.60
2022-10-21T07:52:51.926Z,98.40
2022-10-21T07:56:49.237Z,99.20
2022-10-21T08:00:31.155Z,98.90
2022-10-21T08:04:18.537Z,99.20
2022-10-21T08:08:00.380Z,99.10
2022-10-21T08:11:42.478Z,99.30
2022-10-21T08:15:24.287Z,99.20
2022-10-21T08:19:06.915Z,99.20
2022-10-21T08:22:48.726Z,99.40
2022-10-21T08:26:31.015Z,99.40
2022-10-21T08:30:12.851Z,99.30
2022-10-21T08:33:55.306Z,99.50
2022-10-21T08:37:37.155Z,99.70
2022-10-21T08:41:18.921Z,99.90
2022-10-21T08:45:07.424Z,99.30
2022-10-21T08:49:02.675Z,99.10
2022-10-21T08:52:52.424Z,98.60
2022-10-21T08:56:34.316Z,98.40
2022-10-21T09:00:18.931Z,98.80
2022-10-21T09:04:10.393Z,98.90
2022-10-21T09:08:19.598Z,99.40
2022-10-21T09:12:19.362Z,99.30
2022-10-21T09:16:13.551Z,99.60
2022-10-21T09:20:17.121Z,99.90
2022-10-21T09:24:28.543Z,99.90
2022-10-21T09:28:13.698Z,99.90
2022-10-21T09:32:24.504Z,99.90
2022-10-21T09:36:13.095Z,99.90
2022-10-21T09:40:05.999Z,99.90
2022-10-21T09:43:48.856Z,99.90
2022-10-21T09:47:32.349Z,99.90
2022-10-21T09:51:18.876Z,99.90
2022-10-21T09:55:00.910Z,99.90
2022-10-21T09:58:42.676Z,99.90
2022-10-21T10:02:35.689Z,99.90
2022-10-21T10:06:39.744Z,99.90
2022-10-21T10:10:34.264Z,99.90
2022-10-21T10:14:25.735Z,99.90
2022-10-21T10:18:20.956Z,99.90
2022-10-21T10:22:11.906Z,99.90
2022-10-21T10:25:53.762Z,99.90
2022-10-21T10:29:37.327Z,99.90
2022-10-21T10:33:24.219Z,99.90
2022-10-21T10:37:17.634Z,99.90
2022-10-21T10:41:13.404Z,99.90
2022-10-21T10:45:12.490Z,99.90
2022-10-21T10:48:56.614Z,99.90
2022-10-21T10:52:38.444Z,99.90
2022-10-21T10:56:26.563Z,99.90
2022-10-21T11:00:22.302Z,99.90
2022-10-21T11:04:16.427Z,99.90
2022-10-21T11:08:04.222Z,99.90
2022-10-21T11:11:48.906Z,99.90
2022-10-21T11:15:56.442Z,99.90
2022-10-21T11:19:50.222Z,99.90
2022-10-21T11:23:58.805Z,99.90
2022-10-21T11:27:49.608Z,99.90
2022-10-21T11:32:09.733Z,99.90
2022-10-21T11:35:59.760Z,99.90
2022-10-21T11:39:53.646Z,99.90
2022-10-21T11:43:59.356Z,99.90
2022-10-21T11:47:56.942Z,99.90
2022-10-21T11:51:43.612Z,99.90
2022-10-21T11:55:40.788Z,99.90
2022-10-21T12:00:20.471Z,99.90
2022-10-21T12:04:21.562Z,98.00
2022-10-21T12:08:27.801Z,95.60
2022-10-21T12:12:22.682Z,94.70
2022-10-21T12:16:11.055Z,94.50
2022-10-21T12:19:59.778Z,95.90
2022-10-21T12:23:42.442Z,95.50
2022-10-21T12:27:42.088Z,98.60
2022-10-21T12:31:30.584Z,96.20
2022-10-21T12:35:27.875Z,94.90
2022-10-21T12:39:18.791Z,95.50
2022-10-21T12:43:02.672Z,95.30
2022-10-21T12:46:46.007Z,95.10
2022-10-21T12:50:30.844Z,95.50
2022-10-21T12:54:17.890Z,95.40
2022-10-21T12:58:02.350Z,96.20
2022-10-21T13:01:46.327Z,96.40
2022-10-21T13:06:02.092Z,96.70
2022-10-21T13:10:08.958Z,97.30
2022-10-21T13:14:16.531Z,97.60
2022-10-21T13:17:58.489Z,98.20
2022-10-21T13:21:44.003Z,98.80
2022-10-21T13:25:33.427Z,99.00
2022-10-21T13:29:31.935Z,99.60
2022-10-21T13:33:22.443Z,99.90
2022-10-21T13:37:13.839Z,99.90
2022-10-21T13:41:01.990Z,99.90
2022-10-21T13:44:52.525Z,99.90
2022-10-21T13:48:40.871Z,99.90
2022-10-21T13:52:30.709Z,99.90
2022-10-21T13:56:23.067Z,99.90
2022-10-21T14:00:07.580Z,99.90
2022-10-21T14:03:50.198Z,99.90
2022-10-21T14:07:32.802Z,99.90
2022-10-21T14:11:22.707Z,99.90
2022-10-21T14:15:18.220Z,99.90
2022-10-21T14:19:05.176Z,99.90
2022-10-21T14:22:51.291Z,99.90
2022-10-21T14:26:34.544Z,99.90
2022-10-21T14:30:20.806Z,99.90
2022-10-21T14:34:04.850Z,99.90
2022-10-21T14:37:51.813Z,99.90
2022-10-21T14:41:38.058Z,99.90
2022-10-21T14:45:28.259Z,99.90
2022-10-21T14:49:20.369Z,99.90
2022-10-21T14:53:02.913Z,99.90
2022-10-21T14:56:46.777Z,99.90
2022-10-21T15:00:30.621Z,99.90
2022-10-21T15:04:50.766Z,99.90
2022-10-21T15:08:32.794Z,99.90
2022-10-21T15:12:18.994Z,99.90
2022-10-21T15:16:02.887Z,99.90
2022-10-21T15:19:51.183Z,99.90
2022-10-21T15:23:35.334Z,99.90
2022-10-21T15:27:36.657Z,99.90
2022-10-21T15:31:24.755Z,99.90
2022-10-21T15:35:14.661Z,99.90
2022-10-21T15:38:56.531Z,99.90
2022-10-21T15:42:38.375Z,99.90
2022-10-21T15:46:20.181Z,99.90
2022-10-21T15:50:05.661Z,99.90
2022-10-21T15:53:47.487Z,99.90
2022-10-21T15:57:29.332Z,99.90
2022-10-21T16:01:16.298Z,99.90
2022-10-21T16:04:58.189Z,99.90
2022-10-21T16:08:40.075Z,99.90
2022-10-21T16:12:22.554Z,99.90
2022-10-21T16:16:05.447Z,99.90
2022-10-21T16:19:47.299Z,99.90
2022-10-21T16:23:29.102Z,99.90
2022-10-21T16:27:23.055Z,99.90
2022-10-21T16:31:14.804Z,99.90
2022-10-21T16:34:56.599Z,99.90
2022-10-21T16:38:38.396Z,99.90
2022-10-21T16:42:20.266Z,99.90
2022-10-21T16:46:02.187Z,99.90
2022-10-21T16:49:44.098Z,99.90
2022-10-21T16:53:29.034Z,99.90
2022-10-21T16:57:10.822Z,99.90
2022-10-21T17:00:52.836Z,99.90
2022-10-21T17:04:34.653Z,99.90
2022-10-21T17:08:17.033Z,99.90
2022-10-21T17:11:58.928Z,99.90
2022-10-21T17:15:40.800Z,99.90
2022-10-21T17:19:22.624Z,99.90
2022-10-21T17:23:04.467Z,99.90
2022-10-21T17:26:46.415Z,99.90
2022-10-21T17:30:28.300Z,99.90
2022-10-21T17:34:24.510Z,99.90
2022-10-21T17:38:06.522Z,99.90
2022-10-21T17:41:48.673Z,99.90
2022-10-21T17:45:30.519Z,99.90
2022-10-21T17:49:12.360Z,99.90
2022-10-21T17:52:55.244Z,99.90
2022-10-21T17:56:37.104Z,99.90
2022-10-21T18:00:19.021Z,99.90
2022-10-21T18:04:01.346Z,99.90
2022-10-21T18:07:43.211Z,99.90
2022-10-21T18:11:25.211Z,99.90
2022-10-21T18:15:07.391Z,99.90
2022-10-21T18:18:49.941Z,99.90
2022-10-21T18:22:31.848Z,99.90
2022-10-21T18:26:20.157Z,99.90
2022-10-21T18:30:05.564Z,99.90
2022-10-21T18:33:48.122Z,99.90
2022-10-21T18:37:31.561Z,99.90
2022-10-21T18:41:20.149Z,99.90
2022-10-21T18:45:02.654Z,99.90
2022-10-21T18:48:44.632Z,99.90
2022-10-21T18:52:26.431Z,99.90
2022-10-21T18:56:13.380Z,99.90
2022-10-21T18:59:55.108Z,99.90
2022-10-21T19:03:37.444Z,99.90
2022-10-21T19:07:19.588Z,99.90
2022-10-21T19:11:01.469Z,99.90
2022-10-21T19:14:43.242Z,99.90
2022-10-21T19:18:25.167Z,99.90
2022-10-21T19:22:07.018Z,99.90
2022-10-21T19:25:48.809Z,99.90
2022-10-21T19:29:30.767Z,99.90
2022-10-21T19:33:12.601Z,99.90
2022-10-21T19:36:54.466Z,99.90
2022-10-21T19:40:36.406Z,99.90
2022-10-21T19:44:18.583Z,99.90
2022-10-21T19:48:00.435Z,99.90
2022-10-21T19:51:42.392Z,99.90
2022-10-21T19:55:24.325Z,99.90
2022-10-21T19:59:07.218Z,99.90
2022-10-21T20:02:49.111Z,99.90
2022-10-21T20:06:36.046Z,99.90
2022-10-21T20:10:20.302Z,99.90
2022-10-21T20:14:02.547Z,99.90
2022-10-21T20:17:44.335Z,99.90
2022-10-21T20:21:26.550Z,99.90
2022-10-21T20:25:08.871Z,99.90
2022-10-21T20:28:51.355Z,99.90
2022-10-21T20:32:33.933Z,99.90
2022-10-21T20:36:20.723Z,99.90
2022-10-21T20:40:02.650Z,99.90
2022-10-21T20:43:44.537Z,99.90
2022-10-21T20:47:27.611Z,99.90
2022-10-21T20:51:14.403Z,99.90
2022-10-21T20:54:56.202Z,99.90
2022-10-21T20:58:40.250Z,99.90
2022-10-21T21:02:22.054Z,99.90
2022-10-21T21:06:04.995Z,99.90
2022-10-21T21:10:03.402Z,99.90
2022-10-21T21:13:45.998Z,99.90
2022-10-21T21:17:28.064Z,99.90
2022-10-21T21:21:12.977Z,99.90
2022-10-21T21:24:54.787Z,99.90
2022-10-21T21:28:37.631Z,99.90
2022-10-21T21:32:19.864Z,99.90
2022-10-21T21:36:03.009Z,99.90
2022-10-21T21:39:44.856Z,99.90
2022-10-21T21:43:28.236Z,99.90
2022-10-21T21:47:10.620Z,99.90
2022-10-21T21:50:52.669Z,99.90
2022-10-21T21:54:34.464Z,99.90
2022-10-21T21:58:16.291Z,99.90
2022-10-21T22:01:58.276Z,99.90
2022-10-21T22:05:40.069Z,99.90
2022-10-21T22:09:21.969Z,99.90
2022-10-21T22:13:03.911Z,99.90
2022-10-21T22:16:45.763Z,99.90
2022-10-21T22:20:27.800Z,99.90
2022-10-21T22:24:09.606Z,99.90
2022-10-21T22:27:51.394Z,99.90
2022-10-21T22:31:33.259Z,99.90
2022-10-21T22:35:15.065Z,99.90
2022-10-21T22:38:57.091Z,99.90
2022-10-21T22:42:38.935Z,99.90
2022-10-21T22:46:33.372Z,99.90
2022-10-21T22:50:15.972Z,99.90
2022-10-21T22:53:57.816Z,99.90
2022-10-21T22:57:39.691Z,99.90
2022-10-21T23:01:21.822Z,99.90
2022-10-21T23:05:03.850Z,99.90
2022-10-21T23:08:45.756Z,99.90
2022-10-21T23:12:27.591Z,99.90
2022-10-21T23:16:10.699Z,99.90
2022-10-21T23:19:52.958Z,99.90
2022-10-21T23:23:34.806Z,99.90
2022-10-21T23:27:16.900Z,99.90
2022-10-21T23:30:59.300Z,99.90
2022-10-21T23:34:41.112Z,99.90
2022-10-21T23:38:23.016Z,99.90
2022-10-21T23:42:05.042Z,99.90
2022-10-21T23:45:48.854Z,99.90
2022-10-21T23:49:30.667Z,99.90
2022-10-21T23:53:12.516Z,99.90
2022-10-21T23:56:54.343Z,99.90
